sensor_id;sensor_type;location;lat;lon;timestamp;P1;durP1;ratioP1;P2;durP2;ratioP2
50585;SDS011;36542;51.700;8.846;2023-06-10T00:00:11;8.27;;;5.57;;
50585;SDS011;36542;51.700;8.846;2023-06-10T00:02:39;9.67;;;6.20;;
50585;SDS011;36542;51.700;8.846;2023-06-10T00:05:05;6.97;;;5.77;;
50585;SDS011;36542;51.700;8.846;2023-06-10T00:07:32;8.23;;;5.73;;
50585;SDS011;36542;51.700;8.846;2023-06-10T00:09:58;6.87;;;5.43;;
50585;SDS011;36542;51.700;8.846;2023-06-10T00:12:24;8.27;;;5.40;;
50585;SDS011;36542;51.700;8.846;2023-06-10T00:14:50;8.23;;;5.57;;
50585;SDS011;36542;51.700;8.846;2023-06-10T00:17:16;6.23;;;5.63;;
50585;SDS011;36542;51.700;8.846;2023-06-10T00:19:42;7.70;;;5.87;;
50585;SDS011;36542;51.700;8.846;2023-06-10T00:22:08;7.27;;;5.77;;
50585;SDS011;36542;51.700;8.846;2023-06-10T00:24:37;7.27;;;5.67;;
50585;SDS011;36542;51.700;8.846;2023-06-10T00:27:02;6.80;;;5.10;;
50585;SDS011;36542;51.700;8.846;2023-06-10T00:29:28;8.00;;;5.13;;
50585;SDS011;36542;51.700;8.846;2023-06-10T00:31:54;7.40;;;5.30;;
50585;SDS011;36542;51.700;8.846;2023-06-10T00:34:22;5.90;;;4.90;;
50585;SDS011;36542;51.700;8.846;2023-06-10T00:36:48;6.77;;;4.87;;
50585;SDS011;36542;51.700;8.846;2023-06-10T00:39:13;8.53;;;4.93;;
50585;SDS011;36542;51.700;8.846;2023-06-10T00:41:39;8.17;;;5.07;;
50585;SDS011;36542;51.700;8.846;2023-06-10T00:44:05;7.30;;;4.97;;
50585;SDS011;36542;51.700;8.846;2023-06-10T00:46:30;6.50;;;5.07;;
50585;SDS011;36542;51.700;8.846;2023-06-10T00:48:57;5.90;;;4.73;;
50585;SDS011;36542;51.700;8.846;2023-06-10T00:51:23;9.37;;;4.80;;
50585;SDS011;36542;51.700;8.846;2023-06-10T00:53:48;8.43;;;5.00;;
50585;SDS011;36542;51.700;8.846;2023-06-10T00:56:14;7.47;;;4.60;;
50585;SDS011;36542;51.700;8.846;2023-06-10T00:58:40;6.33;;;4.73;;
50585;SDS011;36542;51.700;8.846;2023-06-10T01:01:06;6.57;;;5.27;;
50585;SDS011;36542;51.700;8.846;2023-06-10T01:03:31;6.70;;;5.17;;
50585;SDS011;36542;51.700;8.846;2023-06-10T01:06:17;9.27;;;5.13;;
50585;SDS011;36542;51.700;8.846;2023-06-10T01:09:06;6.80;;;4.97;;
50585;SDS011;36542;51.700;8.846;2023-06-10T01:11:46;7.03;;;5.67;;
50585;SDS011;36542;51.700;8.846;2023-06-10T01:14:17;7.50;;;5.10;;
50585;SDS011;36542;51.700;8.846;2023-06-10T01:16:43;7.07;;;5.40;;
50585;SDS011;36542;51.700;8.846;2023-06-10T01:19:11;11.03;;;5.60;;
50585;SDS011;36542;51.700;8.846;2023-06-10T01:21:37;7.53;;;5.37;;
50585;SDS011;36542;51.700;8.846;2023-06-10T01:24:04;6.93;;;4.93;;
50585;SDS011;36542;51.700;8.846;2023-06-10T01:26:33;6.47;;;5.27;;
50585;SDS011;36542;51.700;8.846;2023-06-10T01:29:11;6.60;;;5.30;;
50585;SDS011;36542;51.700;8.846;2023-06-10T01:31:43;8.67;;;5.13;;
50585;SDS011;36542;51.700;8.846;2023-06-10T01:34:16;6.63;;;4.63;;
50585;SDS011;36542;51.700;8.846;2023-06-10T01:36:47;9.73;;;5.77;;
50585;SDS011;36542;51.700;8.846;2023-06-10T01:39:14;6.30;;;5.37;;
50585;SDS011;36542;51.700;8.846;2023-06-10T01:41:41;9.70;;;5.23;;
50585;SDS011;36542;51.700;8.846;2023-06-10T01:44:07;7.53;;;5.17;;
50585;SDS011;36542;51.700;8.846;2023-06-10T01:46:33;8.10;;;5.03;;
50585;SDS011;36542;51.700;8.846;2023-06-10T01:48:59;8.47;;;5.23;;
50585;SDS011;36542;51.700;8.846;2023-06-10T01:51:25;7.70;;;5.03;;
50585;SDS011;36542;51.700;8.846;2023-06-10T01:53:50;6.93;;;5.33;;
50585;SDS011;36542;51.700;8.846;2023-06-10T01:56:16;11.53;;;5.97;;
50585;SDS011;36542;51.700;8.846;2023-06-10T01:58:44;8.40;;;5.40;;
50585;SDS011;36542;51.700;8.846;2023-06-10T02:01:10;8.80;;;5.67;;
50585;SDS011;36542;51.700;8.846;2023-06-10T02:03:36;8.60;;;5.77;;
50585;SDS011;36542;51.700;8.846;2023-06-10T02:06:01;9.33;;;5.13;;
50585;SDS011;36542;51.700;8.846;2023-06-10T02:08:27;6.73;;;5.30;;
50585;SDS011;36542;51.700;8.846;2023-06-10T02:10:53;6.80;;;5.53;;
50585;SDS011;36542;51.700;8.846;2023-06-10T02:13:18;6.97;;;5.37;;
50585;SDS011;36542;51.700;8.846;2023-06-10T02:15:44;6.97;;;5.20;;
50585;SDS011;36542;51.700;8.846;2023-06-10T02:18:10;10.57;;;5.67;;
50585;SDS011;36542;51.700;8.846;2023-06-10T02:20:37;7.93;;;4.77;;
50585;SDS011;36542;51.700;8.846;2023-06-10T02:23:03;7.33;;;5.00;;
50585;SDS011;36542;51.700;8.846;2023-06-10T02:25:28;6.87;;;5.23;;
50585;SDS011;36542;51.700;8.846;2023-06-10T02:27:54;6.53;;;4.80;;
50585;SDS011;36542;51.700;8.846;2023-06-10T02:30:19;6.70;;;5.00;;
50585;SDS011;36542;51.700;8.846;2023-06-10T02:32:45;6.57;;;5.37;;
50585;SDS011;36542;51.700;8.846;2023-06-10T02:35:13;7.40;;;5.50;;
50585;SDS011;36542;51.700;8.846;2023-06-10T02:37:42;5.30;;;4.80;;
50585;SDS011;36542;51.700;8.846;2023-06-10T02:40:08;9.13;;;5.40;;
50585;SDS011;36542;51.700;8.846;2023-06-10T02:42:34;5.27;;;4.77;;
50585;SDS011;36542;51.700;8.846;2023-06-10T02:44:59;7.87;;;5.60;;
50585;SDS011;36542;51.700;8.846;2023-06-10T02:47:25;8.03;;;5.10;;
50585;SDS011;36542;51.700;8.846;2023-06-10T02:49:51;6.63;;;4.93;;
50585;SDS011;36542;51.700;8.846;2023-06-10T02:52:17;7.10;;;5.17;;
50585;SDS011;36542;51.700;8.846;2023-06-10T02:54:42;6.30;;;5.20;;
50585;SDS011;36542;51.700;8.846;2023-06-10T02:57:08;7.50;;;5.30;;
50585;SDS011;36542;51.700;8.846;2023-06-10T02:59:34;9.80;;;4.97;;
50585;SDS011;36542;51.700;8.846;2023-06-10T03:02:00;9.47;;;5.43;;
50585;SDS011;36542;51.700;8.846;2023-06-10T03:04:26;8.30;;;4.80;;
50585;SDS011;36542;51.700;8.846;2023-06-10T03:06:53;9.83;;;5.27;;
50585;SDS011;36542;51.700;8.846;2023-06-10T03:09:19;6.50;;;5.00;;
50585;SDS011;36542;51.700;8.846;2023-06-10T03:11:45;6.53;;;5.07;;
50585;SDS011;36542;51.700;8.846;2023-06-10T03:14:10;8.13;;;5.13;;
50585;SDS011;36542;51.700;8.846;2023-06-10T03:16:36;7.17;;;5.43;;
50585;SDS011;36542;51.700;8.846;2023-06-10T03:19:05;7.80;;;5.00;;
50585;SDS011;36542;51.700;8.846;2023-06-10T03:21:31;8.43;;;4.93;;
50585;SDS011;36542;51.700;8.846;2023-06-10T03:23:56;7.03;;;5.30;;
50585;SDS011;36542;51.700;8.846;2023-06-10T03:26:22;6.00;;;4.70;;
50585;SDS011;36542;51.700;8.846;2023-06-10T03:28:47;7.10;;;4.50;;
50585;SDS011;36542;51.700;8.846;2023-06-10T03:31:13;7.37;;;5.00;;
50585;SDS011;36542;51.700;8.846;2023-06-10T03:33:41;7.60;;;5.20;;
50585;SDS011;36542;51.700;8.846;2023-06-10T03:36:07;7.13;;;5.00;;
50585;SDS011;36542;51.700;8.846;2023-06-10T03:38:33;8.97;;;5.40;;
50585;SDS011;36542;51.700;8.846;2023-06-10T03:40:58;7.17;;;4.63;;
50585;SDS011;36542;51.700;8.846;2023-06-10T03:43:23;8.93;;;4.83;;
50585;SDS011;36542;51.700;8.846;2023-06-10T03:45:49;6.63;;;4.73;;
50585;SDS011;36542;51.700;8.846;2023-06-10T03:48:14;6.67;;;4.77;;
50585;SDS011;36542;51.700;8.846;2023-06-10T03:50:40;6.67;;;5.00;;
50585;SDS011;36542;51.700;8.846;2023-06-10T03:53:06;7.83;;;5.10;;
50585;SDS011;36542;51.700;8.846;2023-06-10T03:55:31;5.30;;;4.80;;
50585;SDS011;36542;51.700;8.846;2023-06-10T03:57:56;5.77;;;4.80;;
50585;SDS011;36542;51.700;8.846;2023-06-10T04:00:23;9.57;;;5.17;;
50585;SDS011;36542;51.700;8.846;2023-06-10T04:02:48;5.83;;;4.70;;
50585;SDS011;36542;51.700;8.846;2023-06-10T04:05:16;6.00;;;4.57;;
50585;SDS011;36542;51.700;8.846;2023-06-10T04:07:42;7.73;;;4.80;;
50585;SDS011;36542;51.700;8.846;2023-06-10T04:10:09;7.57;;;4.67;;
50585;SDS011;36542;51.700;8.846;2023-06-10T04:12:36;7.20;;;5.40;;
50585;SDS011;36542;51.700;8.846;2023-06-10T04:15:02;5.93;;;4.80;;
50585;SDS011;36542;51.700;8.846;2023-06-10T04:17:28;7.00;;;4.47;;
50585;SDS011;36542;51.700;8.846;2023-06-10T04:19:54;6.90;;;4.53;;
50585;SDS011;36542;51.700;8.846;2023-06-10T04:22:20;7.30;;;4.60;;
50585;SDS011;36542;51.700;8.846;2023-06-10T04:24:46;6.73;;;4.50;;
50585;SDS011;36542;51.700;8.846;2023-06-10T04:27:12;6.03;;;4.93;;
50585;SDS011;36542;51.700;8.846;2023-06-10T04:29:37;6.40;;;5.00;;
50585;SDS011;36542;51.700;8.846;2023-06-10T04:32:03;10.40;;;4.80;;
50585;SDS011;36542;51.700;8.846;2023-06-10T04:34:30;6.63;;;4.37;;
50585;SDS011;36542;51.700;8.846;2023-06-10T04:36:56;7.83;;;5.00;;
50585;SDS011;36542;51.700;8.846;2023-06-10T04:39:21;8.33;;;4.80;;
50585;SDS011;36542;51.700;8.846;2023-06-10T04:41:47;5.40;;;4.20;;
50585;SDS011;36542;51.700;8.846;2023-06-10T04:44:13;8.03;;;4.60;;
50585;SDS011;36542;51.700;8.846;2023-06-10T04:46:38;10.73;;;4.53;;
50585;SDS011;36542;51.700;8.846;2023-06-10T04:49:04;6.77;;;4.70;;
50585;SDS011;36542;51.700;8.846;2023-06-10T04:51:30;7.03;;;4.13;;
50585;SDS011;36542;51.700;8.846;2023-06-10T04:53:56;6.23;;;4.33;;
50585;SDS011;36542;51.700;8.846;2023-06-10T04:56:22;6.97;;;4.70;;
50585;SDS011;36542;51.700;8.846;2023-06-10T04:58:48;9.30;;;4.27;;
50585;SDS011;36542;51.700;8.846;2023-06-10T05:01:14;7.53;;;3.93;;
50585;SDS011;36542;51.700;8.846;2023-06-10T05:03:40;6.07;;;4.33;;
50585;SDS011;36542;51.700;8.846;2023-06-10T05:06:05;6.43;;;4.57;;
50585;SDS011;36542;51.700;8.846;2023-06-10T05:08:31;5.97;;;4.23;;
50585;SDS011;36542;51.700;8.846;2023-06-10T05:10:56;6.40;;;4.20;;
50585;SDS011;36542;51.700;8.846;2023-06-10T05:13:23;6.83;;;3.90;;
50585;SDS011;36542;51.700;8.846;2023-06-10T05:15:48;6.67;;;4.60;;
50585;SDS011;36542;51.700;8.846;2023-06-10T05:18:14;9.10;;;3.87;;
50585;SDS011;36542;51.700;8.846;2023-06-10T05:20:39;4.80;;;4.27;;
50585;SDS011;36542;51.700;8.846;2023-06-10T05:23:05;6.87;;;4.87;;
50585;SDS011;36542;51.700;8.846;2023-06-10T05:25:31;6.10;;;4.57;;
50585;SDS011;36542;51.700;8.846;2023-06-10T05:27:57;7.32;;;4.18;;
50585;SDS011;36542;51.700;8.846;2023-06-10T05:30:23;7.53;;;4.43;;
50585;SDS011;36542;51.700;8.846;2023-06-10T05:32:50;6.55;;;4.63;;
50585;SDS011;36542;51.700;8.846;2023-06-10T05:35:16;5.95;;;3.97;;
50585;SDS011;36542;51.700;8.846;2023-06-10T05:37:42;4.60;;;4.13;;
50585;SDS011;36542;51.700;8.846;2023-06-10T05:40:08;4.93;;;4.13;;
50585;SDS011;36542;51.700;8.846;2023-06-10T05:42:33;4.88;;;4.20;;
50585;SDS011;36542;51.700;8.846;2023-06-10T05:44:59;4.32;;;3.92;;
50585;SDS011;36542;51.700;8.846;2023-06-10T05:47:24;7.30;;;3.90;;
50585;SDS011;36542;51.700;8.846;2023-06-10T05:49:50;4.68;;;3.90;;
50585;SDS011;36542;51.700;8.846;2023-06-10T05:52:16;8.80;;;3.53;;
50585;SDS011;36542;51.700;8.846;2023-06-10T05:54:42;4.05;;;3.65;;
50585;SDS011;36542;51.700;8.846;2023-06-10T05:57:08;6.43;;;4.40;;
50585;SDS011;36542;51.700;8.846;2023-06-10T05:59:33;5.78;;;3.90;;
50585;SDS011;36542;51.700;8.846;2023-06-10T06:01:59;5.32;;;4.18;;
50585;SDS011;36542;51.700;8.846;2023-06-10T06:04:24;8.43;;;4.32;;
50585;SDS011;36542;51.700;8.846;2023-06-10T06:06:50;4.82;;;3.67;;
50585;SDS011;36542;51.700;8.846;2023-06-10T06:09:15;6.28;;;3.88;;
50585;SDS011;36542;51.700;8.846;2023-06-10T06:11:41;6.60;;;4.05;;
50585;SDS011;36542;51.700;8.846;2023-06-10T06:14:06;4.60;;;3.92;;
50585;SDS011;36542;51.700;8.846;2023-06-10T06:16:32;6.03;;;3.83;;
50585;SDS011;36542;51.700;8.846;2023-06-10T06:18:57;5.78;;;3.50;;
50585;SDS011;36542;51.700;8.846;2023-06-10T06:21:23;5.82;;;3.80;;
50585;SDS011;36542;51.700;8.846;2023-06-10T06:23:48;5.65;;;3.72;;
50585;SDS011;36542;51.700;8.846;2023-06-10T06:26:14;5.90;;;3.55;;
50585;SDS011;36542;51.700;8.846;2023-06-10T06:28:40;4.18;;;3.40;;
50585;SDS011;36542;51.700;8.846;2023-06-10T06:31:06;7.55;;;4.32;;
50585;SDS011;36542;51.700;8.846;2023-06-10T06:33:32;4.30;;;3.90;;
50585;SDS011;36542;51.700;8.846;2023-06-10T06:35:57;4.55;;;3.63;;
50585;SDS011;36542;51.700;8.846;2023-06-10T06:38:25;4.18;;;3.78;;
50585;SDS011;36542;51.700;8.846;2023-06-10T06:40:51;5.38;;;3.75;;
50585;SDS011;36542;51.700;8.846;2023-06-10T06:43:16;4.10;;;3.80;;
50585;SDS011;36542;51.700;8.846;2023-06-10T06:45:43;4.15;;;3.45;;
50585;SDS011;36542;51.700;8.846;2023-06-10T06:48:10;4.35;;;3.72;;
50585;SDS011;36542;51.700;8.846;2023-06-10T06:50:35;5.47;;;3.50;;
50585;SDS011;36542;51.700;8.846;2023-06-10T06:53:01;6.07;;;3.65;;
50585;SDS011;36542;51.700;8.846;2023-06-10T06:55:27;5.70;;;3.50;;
50585;SDS011;36542;51.700;8.846;2023-06-10T06:57:52;7.28;;;4.13;;
50585;SDS011;36542;51.700;8.846;2023-06-10T07:00:18;6.15;;;3.45;;
50585;SDS011;36542;51.700;8.846;2023-06-10T07:02:43;6.38;;;3.85;;
50585;SDS011;36542;51.700;8.846;2023-06-10T07:05:09;5.13;;;3.90;;
50585;SDS011;36542;51.700;8.846;2023-06-10T07:07:35;4.90;;;3.40;;
50585;SDS011;36542;51.700;8.846;2023-06-10T07:10:00;4.35;;;3.95;;
50585;SDS011;36542;51.700;8.846;2023-06-10T07:12:26;5.25;;;3.90;;
50585;SDS011;36542;51.700;8.846;2023-06-10T07:14:52;5.20;;;4.03;;
50585;SDS011;36542;51.700;8.846;2023-06-10T07:17:17;5.03;;;3.25;;
50585;SDS011;36542;51.700;8.846;2023-06-10T07:19:43;4.32;;;3.35;;
50585;SDS011;36542;51.700;8.846;2023-06-10T07:22:09;5.13;;;3.38;;
50585;SDS011;36542;51.700;8.846;2023-06-10T07:24:35;3.80;;;3.50;;
50585;SDS011;36542;51.700;8.846;2023-06-10T07:27:00;4.63;;;3.53;;
50585;SDS011;36542;51.700;8.846;2023-06-10T07:29:26;5.07;;;3.72;;
50585;SDS011;36542;51.700;8.846;2023-06-10T07:31:51;6.18;;;3.78;;
50585;SDS011;36542;51.700;8.846;2023-06-10T07:34:18;4.13;;;3.70;;
50585;SDS011;36542;51.700;8.846;2023-06-10T07:36:43;5.32;;;3.75;;
50585;SDS011;36542;51.700;8.846;2023-06-10T07:39:09;4.35;;;3.90;;
50585;SDS011;36542;51.700;8.846;2023-06-10T07:41:36;7.38;;;3.80;;
50585;SDS011;36542;51.700;8.846;2023-06-10T07:44:02;4.35;;;3.80;;
50585;SDS011;36542;51.700;8.846;2023-06-10T07:46:27;5.38;;;3.72;;
50585;SDS011;36542;51.700;8.846;2023-06-10T07:48:53;5.15;;;3.90;;
50585;SDS011;36542;51.700;8.846;2023-06-10T07:51:20;6.35;;;3.90;;
50585;SDS011;36542;51.700;8.846;2023-06-10T07:53:46;5.05;;;3.63;;
50585;SDS011;36542;51.700;8.846;2023-06-10T07:56:11;4.93;;;3.90;;
50585;SDS011;36542;51.700;8.846;2023-06-10T07:58:37;4.75;;;3.72;;
50585;SDS011;36542;51.700;8.846;2023-06-10T08:01:03;4.45;;;3.65;;
50585;SDS011;36542;51.700;8.846;2023-06-10T08:03:29;4.38;;;3.90;;
50585;SDS011;36542;51.700;8.846;2023-06-10T08:05:54;5.60;;;3.97;;
50585;SDS011;36542;51.700;8.846;2023-06-10T08:08:20;5.55;;;3.95;;
50585;SDS011;36542;51.700;8.846;2023-06-10T08:10:45;5.20;;;3.60;;
50585;SDS011;36542;51.700;8.846;2023-06-10T08:13:11;5.13;;;3.92;;
50585;SDS011;36542;51.700;8.846;2023-06-10T08:15:36;5.00;;;4.38;;
50585;SDS011;36542;51.700;8.846;2023-06-10T08:18:01;4.00;;;3.70;;
50585;SDS011;36542;51.700;8.846;2023-06-10T08:20:27;5.68;;;3.70;;
50585;SDS011;36542;51.700;8.846;2023-06-10T08:22:53;4.63;;;4.18;;
50585;SDS011;36542;51.700;8.846;2023-06-10T08:25:18;4.72;;;3.88;;
50585;SDS011;36542;51.700;8.846;2023-06-10T08:27:46;6.45;;;3.90;;
50585;SDS011;36542;51.700;8.846;2023-06-10T08:30:11;5.20;;;4.10;;
50585;SDS011;36542;51.700;8.846;2023-06-10T08:32:38;5.22;;;3.50;;
50585;SDS011;36542;51.700;8.846;2023-06-10T08:35:03;5.70;;;4.15;;
50585;SDS011;36542;51.700;8.846;2023-06-10T08:37:29;5.63;;;3.97;;
50585;SDS011;36542;51.700;8.846;2023-06-10T08:39:54;5.38;;;4.30;;
50585;SDS011;36542;51.700;8.846;2023-06-10T08:42:24;8.63;;;4.50;;
50585;SDS011;36542;51.700;8.846;2023-06-10T08:44:58;4.30;;;3.90;;
50585;SDS011;36542;51.700;8.846;2023-06-10T08:47:27;5.43;;;4.20;;
50585;SDS011;36542;51.700;8.846;2023-06-10T08:49:55;5.25;;;4.20;;
50585;SDS011;36542;51.700;8.846;2023-06-10T08:52:26;5.50;;;3.88;;
50585;SDS011;36542;51.700;8.846;2023-06-10T08:54:56;5.60;;;4.60;;
50585;SDS011;36542;51.700;8.846;2023-06-10T08:57:25;5.75;;;3.97;;
50585;SDS011;36542;51.700;8.846;2023-06-10T08:59:52;5.13;;;3.97;;
50585;SDS011;36542;51.700;8.846;2023-06-10T09:02:19;5.90;;;4.28;;
50585;SDS011;36542;51.700;8.846;2023-06-10T09:04:46;6.88;;;4.40;;
50585;SDS011;36542;51.700;8.846;2023-06-10T09:07:13;4.70;;;4.20;;
50585;SDS011;36542;51.700;8.846;2023-06-10T09:09:39;8.38;;;4.10;;
50585;SDS011;36542;51.700;8.846;2023-06-10T09:12:07;5.60;;;4.63;;
50585;SDS011;36542;51.700;8.846;2023-06-10T09:14:33;5.80;;;4.15;;
50585;SDS011;36542;51.700;8.846;2023-06-10T09:16:59;5.35;;;4.40;;
50585;SDS011;36542;51.700;8.846;2023-06-10T09:19:25;5.03;;;4.15;;
50585;SDS011;36542;51.700;8.846;2023-06-10T09:21:51;7.30;;;4.50;;
50585;SDS011;36542;51.700;8.846;2023-06-10T09:24:17;6.75;;;4.38;;
50585;SDS011;36542;51.700;8.846;2023-06-10T09:26:43;6.07;;;4.97;;
50585;SDS011;36542;51.700;8.846;2023-06-10T09:29:10;4.50;;;4.10;;
50585;SDS011;36542;51.700;8.846;2023-06-10T09:31:38;5.10;;;4.60;;
50585;SDS011;36542;51.700;8.846;2023-06-10T09:34:12;6.57;;;4.57;;
50585;SDS011;36542;51.700;8.846;2023-06-10T09:36:39;5.15;;;4.68;;
50585;SDS011;36542;51.700;8.846;2023-06-10T09:39:13;5.10;;;4.43;;
50585;SDS011;36542;51.700;8.846;2023-06-10T09:41:41;5.50;;;4.45;;
50585;SDS011;36542;51.700;8.846;2023-06-10T09:44:13;6.13;;;4.82;;
50585;SDS011;36542;51.700;8.846;2023-06-10T09:46:40;5.28;;;4.25;;
50585;SDS011;36542;51.700;8.846;2023-06-10T09:49:06;6.60;;;4.20;;
50585;SDS011;36542;51.700;8.846;2023-06-10T09:51:31;7.38;;;4.80;;
50585;SDS011;36542;51.700;8.846;2023-06-10T09:53:57;5.78;;;4.47;;
50585;SDS011;36542;51.700;8.846;2023-06-10T09:56:34;6.72;;;4.72;;
50585;SDS011;36542;51.700;8.846;2023-06-10T09:59:01;5.05;;;4.55;;
50585;SDS011;36542;51.700;8.846;2023-06-10T10:01:27;8.90;;;4.75;;
50585;SDS011;36542;51.700;8.846;2023-06-10T10:03:53;6.03;;;4.80;;
50585;SDS011;36542;51.700;8.846;2023-06-10T10:06:19;4.50;;;4.07;;
50585;SDS011;36542;51.700;8.846;2023-06-10T10:08:46;5.43;;;4.45;;
50585;SDS011;36542;51.700;8.846;2023-06-10T10:11:19;4.95;;;4.45;;
50585;SDS011;36542;51.700;8.846;2023-06-10T10:13:47;6.03;;;4.40;;
50585;SDS011;36542;51.700;8.846;2023-06-10T10:16:14;6.40;;;4.85;;
50585;SDS011;36542;51.700;8.846;2023-06-10T10:18:53;4.85;;;4.35;;
50585;SDS011;36542;51.700;8.846;2023-06-10T10:21:23;5.45;;;4.40;;
50585;SDS011;36542;51.700;8.846;2023-06-10T10:26:18;5.55;;;4.90;;
50585;SDS011;36542;51.700;8.846;2023-06-10T10:28:50;6.03;;;5.35;;
50585;SDS011;36542;51.700;8.846;2023-06-10T10:31:21;5.63;;;4.82;;
50585;SDS011;36542;51.700;8.846;2023-06-10T10:36:25;6.07;;;4.75;;
50585;SDS011;36542;51.700;8.846;2023-06-10T10:38:52;6.85;;;4.85;;
50585;SDS011;36542;51.700;8.846;2023-06-10T10:41:18;6.68;;;5.70;;
50585;SDS011;36542;51.700;8.846;2023-06-10T10:43:44;7.53;;;5.47;;
50585;SDS011;36542;51.700;8.846;2023-06-10T10:46:12;6.30;;;4.82;;
50585;SDS011;36542;51.700;8.846;2023-06-10T10:48:39;5.50;;;4.97;;
50585;SDS011;36542;51.700;8.846;2023-06-10T10:51:08;6.80;;;5.05;;
50585;SDS011;36542;51.700;8.846;2023-06-10T10:53:34;5.90;;;5.30;;
50585;SDS011;36542;51.700;8.846;2023-06-10T10:56:15;5.20;;;4.70;;
50585;SDS011;36542;51.700;8.846;2023-06-10T10:58:43;5.78;;;5.00;;
50585;SDS011;36542;51.700;8.846;2023-06-10T11:01:33;7.05;;;5.28;;
50585;SDS011;36542;51.700;8.846;2023-06-10T11:04:11;6.05;;;5.03;;
50585;SDS011;36542;51.700;8.846;2023-06-10T11:06:37;6.22;;;4.97;;
50585;SDS011;36542;51.700;8.846;2023-06-10T11:09:24;6.38;;;5.50;;
50585;SDS011;36542;51.700;8.846;2023-06-10T11:11:56;6.05;;;5.35;;
50585;SDS011;36542;51.700;8.846;2023-06-10T11:14:27;6.00;;;5.15;;
50585;SDS011;36542;51.700;8.846;2023-06-10T11:16:56;6.63;;;5.72;;
50585;SDS011;36542;51.700;8.846;2023-06-10T11:19:32;5.68;;;5.18;;
50585;SDS011;36542;51.700;8.846;2023-06-10T11:22:05;6.32;;;5.47;;
50585;SDS011;36542;51.700;8.846;2023-06-10T11:24:32;7.20;;;5.13;;
50585;SDS011;36542;51.700;8.846;2023-06-10T11:27:16;6.43;;;5.20;;
50585;SDS011;36542;51.700;8.846;2023-06-10T11:32:43;7.70;;;5.40;;
50585;SDS011;36542;51.700;8.846;2023-06-10T11:35:08;7.25;;;5.93;;
50585;SDS011;36542;51.700;8.846;2023-06-10T11:37:34;6.53;;;5.82;;
50585;SDS011;36542;51.700;8.846;2023-06-10T11:40:00;6.50;;;5.80;;
50585;SDS011;36542;51.700;8.846;2023-06-10T11:42:27;5.97;;;5.43;;
50585;SDS011;36542;51.700;8.846;2023-06-10T11:44:53;7.18;;;5.78;;
50585;SDS011;36542;51.700;8.846;2023-06-10T11:47:19;6.03;;;5.53;;
50585;SDS011;36542;51.700;8.846;2023-06-10T11:49:55;9.55;;;5.80;;
50585;SDS011;36542;51.700;8.846;2023-06-10T11:52:31;6.80;;;6.10;;
50585;SDS011;36542;51.700;8.846;2023-06-10T11:54:58;7.68;;;6.30;;
50585;SDS011;36542;51.700;8.846;2023-06-10T11:57:24;7.80;;;6.25;;
50585;SDS011;36542;51.700;8.846;2023-06-10T11:59:49;7.82;;;6.60;;
50585;SDS011;36542;51.700;8.846;2023-06-10T12:02:15;7.53;;;6.25;;
50585;SDS011;36542;51.700;8.846;2023-06-10T12:04:41;8.93;;;6.03;;
50585;SDS011;36542;51.700;8.846;2023-06-10T12:07:07;10.88;;;6.43;;
50585;SDS011;36542;51.700;8.846;2023-06-10T12:09:32;7.68;;;6.60;;
50585;SDS011;36542;51.700;8.846;2023-06-10T12:11:59;7.25;;;6.15;;
50585;SDS011;36542;51.700;8.846;2023-06-10T12:19:56;8.90;;;6.50;;
50585;SDS011;36542;51.700;8.846;2023-06-10T12:22:22;7.45;;;6.55;;
50585;SDS011;36542;51.700;8.846;2023-06-10T12:24:58;8.48;;;6.68;;
50585;SDS011;36542;51.700;8.846;2023-06-10T12:27:25;6.78;;;5.88;;
50585;SDS011;36542;51.700;8.846;2023-06-10T12:29:51;8.23;;;6.75;;
50585;SDS011;36542;51.700;8.846;2023-06-10T12:32:18;7.35;;;6.13;;
50585;SDS011;36542;51.700;8.846;2023-06-10T12:34:45;8.10;;;7.03;;
50585;SDS011;36542;51.700;8.846;2023-06-10T12:37:11;6.85;;;6.18;;
50585;SDS011;36542;51.700;8.846;2023-06-10T12:39:41;9.10;;;6.75;;
50585;SDS011;36542;51.700;8.846;2023-06-10T12:42:11;7.78;;;6.82;;
50585;SDS011;36542;51.700;8.846;2023-06-10T12:44:40;7.93;;;6.60;;
50585;SDS011;36542;51.700;8.846;2023-06-10T12:47:10;7.30;;;6.40;;
50585;SDS011;36542;51.700;8.846;2023-06-10T12:49:37;7.65;;;6.72;;
50585;SDS011;36542;51.700;8.846;2023-06-10T12:52:03;7.55;;;6.47;;
50585;SDS011;36542;51.700;8.846;2023-06-10T12:54:30;7.63;;;6.55;;
50585;SDS011;36542;51.700;8.846;2023-06-10T12:56:55;9.65;;;6.90;;
50585;SDS011;36542;51.700;8.846;2023-06-10T12:59:23;9.52;;;7.20;;
50585;SDS011;36542;51.700;8.846;2023-06-10T13:01:52;8.32;;;6.82;;
50585;SDS011;36542;51.700;8.846;2023-06-10T13:04:18;9.27;;;7.30;;
50585;SDS011;36542;51.700;8.846;2023-06-10T13:06:45;8.30;;;7.20;;
50585;SDS011;36542;51.700;8.846;2023-06-10T13:09:11;8.38;;;7.47;;
50585;SDS011;36542;51.700;8.846;2023-06-10T13:11:37;7.70;;;6.82;;
50585;SDS011;36542;51.700;8.846;2023-06-10T13:14:03;8.68;;;6.78;;
50585;SDS011;36542;51.700;8.846;2023-06-10T13:16:30;8.95;;;6.88;;
50585;SDS011;36542;51.700;8.846;2023-06-10T13:18:57;9.63;;;7.47;;
50585;SDS011;36542;51.700;8.846;2023-06-10T13:21:22;7.75;;;7.03;;
50585;SDS011;36542;51.700;8.846;2023-06-10T13:23:48;7.78;;;6.93;;
50585;SDS011;36542;51.700;8.846;2023-06-10T13:26:14;8.55;;;7.53;;
50585;SDS011;36542;51.700;8.846;2023-06-10T13:28:41;10.50;;;8.35;;
50585;SDS011;36542;51.700;8.846;2023-06-10T13:31:07;8.93;;;8.02;;
50585;SDS011;36542;51.700;8.846;2023-06-10T13:33:32;10.25;;;7.68;;
50585;SDS011;36542;51.700;8.846;2023-06-10T13:35:58;11.00;;;7.88;;
50585;SDS011;36542;51.700;8.846;2023-06-10T13:38:23;8.45;;;7.65;;
50585;SDS011;36542;51.700;8.846;2023-06-10T13:40:49;9.82;;;7.85;;
50585;SDS011;36542;51.700;8.846;2023-06-10T13:43:15;8.98;;;8.07;;
50585;SDS011;36542;51.700;8.846;2023-06-10T13:45:41;8.43;;;7.60;;
50585;SDS011;36542;51.700;8.846;2023-06-10T13:48:07;10.15;;;8.10;;
50585;SDS011;36542;51.700;8.846;2023-06-10T13:50:33;11.15;;;8.25;;
50585;SDS011;36542;51.700;8.846;2023-06-10T13:52:59;8.60;;;7.70;;
50585;SDS011;36542;51.700;8.846;2023-06-10T13:55:24;9.98;;;8.20;;
50585;SDS011;36542;51.700;8.846;2023-06-10T13:57:50;8.50;;;7.45;;
50585;SDS011;36542;51.700;8.846;2023-06-10T14:00:16;9.68;;;7.57;;
50585;SDS011;36542;51.700;8.846;2023-06-10T14:02:42;8.68;;;7.75;;
50585;SDS011;36542;51.700;8.846;2023-06-10T14:05:07;11.27;;;8.00;;
50585;SDS011;36542;51.700;8.846;2023-06-10T14:07:33;8.38;;;7.57;;
50585;SDS011;36542;51.700;8.846;2023-06-10T14:09:59;9.15;;;8.25;;
50585;SDS011;36542;51.700;8.846;2023-06-10T14:12:24;9.50;;;7.80;;
50585;SDS011;36542;51.700;8.846;2023-06-10T14:14:50;8.35;;;7.55;;
50585;SDS011;36542;51.700;8.846;2023-06-10T14:17:15;10.40;;;8.68;;
50585;SDS011;36542;51.700;8.846;2023-06-10T14:19:41;11.48;;;8.27;;
50585;SDS011;36542;51.700;8.846;2023-06-10T14:22:06;8.88;;;7.70;;
50585;SDS011;36542;51.700;8.846;2023-06-10T14:24:33;9.52;;;8.02;;
50585;SDS011;36542;51.700;8.846;2023-06-10T14:26:59;9.73;;;7.78;;
50585;SDS011;36542;51.700;8.846;2023-06-10T14:29:25;9.85;;;8.55;;
50585;SDS011;36542;51.700;8.846;2023-06-10T14:31:53;9.23;;;7.88;;
50585;SDS011;36542;51.700;8.846;2023-06-10T14:34:19;9.23;;;8.32;;
50585;SDS011;36542;51.700;8.846;2023-06-10T14:36:45;9.10;;;8.20;;
50585;SDS011;36542;51.700;8.846;2023-06-10T14:39:10;9.38;;;8.15;;
50585;SDS011;36542;51.700;8.846;2023-06-10T14:41:36;10.85;;;8.13;;
50585;SDS011;36542;51.700;8.846;2023-06-10T14:44:01;8.48;;;7.30;;
50585;SDS011;36542;51.700;8.846;2023-06-10T14:46:27;11.27;;;7.95;;
50585;SDS011;36542;51.700;8.846;2023-06-10T14:48:52;10.00;;;8.13;;
50585;SDS011;36542;51.700;8.846;2023-06-10T14:51:18;8.80;;;7.97;;
50585;SDS011;36542;51.700;8.846;2023-06-10T14:53:45;11.18;;;7.93;;
50585;SDS011;36542;51.700;8.846;2023-06-10T14:56:11;11.02;;;7.68;;
50585;SDS011;36542;51.700;8.846;2023-06-10T14:58:37;9.18;;;8.27;;